Portada
METAR-TAF:

METAR-TAF

Aeroports :

Pattani, Tailàndia

latitud: 06-47-08N, longitud: 101-09-13E, altitud: 2 m

METAR: manca

Hora: 19:35 (12:35 UTC)

Pronòstic

L'informe es va fer fa 1 hora i 35 minuts, a les 11:00 UTC
Pronòstic vàlid del 17 a les 12 UTC al 18 a les 12 UTC
Vent 8 kt del Nord-Est
Visibilitat 10 km o més
Núvols disperses a una alçada de 2000 ft
Temporalment
l' 17 a les 12 UTC al 17 a les 18 UTC
Visibilitat: 5000 m
Núvols disperses a una alçada de 1500 ft
Cel ennuvolat a una alçada de 10000 ft
pluja
Temporalment
l' 17 a les 22 UTC al 18 a les 04 UTC
Visibilitat: 5000 m
Núvols disperses a una alçada de 1500 ft
Cel ennuvolat a una alçada de 10000 ft
pluja
Temporalment
l' 18 a les 04 UTC al 18 a les 10 UTC
Visibilitat: 5000 m
Núvols disperses a una alçada de 1500 ft
Cel ennuvolat a una alçada de 10000 ft
pluja

TAF: VTSK 171100Z 1712/1812 04008KT 9999 SCT020 TEMPO 1712/1718 5000 RA SCT015 BKN100 TEMPO 1722/1804 5000 RA SCT015 BKN100 TEMPO 1804/1810 5000 RA SCT015 BKN100

Observacions i pronòstics meteorològics de més de 4000 aeroports (METAR i TAF).

Les estacions disponibles són els punts grocs i vermells al mapa.

Posi el ratolí al punt desitjat per veure el nom de l'estació.

Feu clic per veure les observacions i els pronòstics meteorològics.

Per canviar el mapa: feu clic els botons verds amb una creu de color negre per apropar; al botó verd amb un guió per allunyar la imatge; o en les fletxes verdes per a mapes adjacents.


METAR-TAF: